Pellston Regional Airport of Emmet County Airport
KPLN : rendu visible

Aérodrome :











RETROUVEZ-NOUS SUR...

 
LOGIN :

S'inscrire | Disclaimer

   EN    FR    IT 

 









Légende :    VFR   VFR Marginal   IFR   IFR Intensif   IFR Très Intensif
Visi : 
Plafond : 
>= 8 km
>= 3000ft
5 à 8 km
1000 à 3000 ft
1500m à 5 km
500 à 1000 ft
800 à 1500m
200 à 500 ft
< 800m
< 200 ft
Symboles :   Orages  Brouillard  Fortes neiges  Fortes précipitations  Vent > 20 kt






- Altitude de l'aérodrome : 721 ft
- Code IATA : PLN


KPLN - Pellston Regional of Emmet County

DERNIER METAR :
  • 190254Z AUTO 31019G25KT 8SM BKN043 BKN065 M05/M11 A3013 RMK AO2 PK WND 28026/0225 SNE23B26E36 SLP214 P0000 60000 T10501106 52019 $

METARs EXPIRÉS :
  • 190224Z AUTO 29015G24KT 5SM HZ SCT032 OVC060 M04/M09 A3012 RMK AO2 SNE23 P0000 T10441094 $
  • 190215Z AUTO 28016G23KT 4SM -SN BKN029 BKN055 OVC065 M04/M09 A3011 RMK AO2 P0000 T10441089 $
  • 190203Z AUTO 28012KT 3SM -SN SCT031 BKN045 OVC055 M04/M08 A3011 RMK AO2 P0000 T10441083 $
  • 190157Z AUTO 29014G21KT 2 1/2SM -SN BKN027 OVC060 M04/M08 A3011 RMK AO2 P0000 T10441083 $
  • 190136Z AUTO 29010KT 9SM FEW018 OVC060 M04/M09 A3010 RMK AO2 SNE05B18E34 P0000 T10441089 $
  • 190105Z AUTO 28009KT 9SM SCT025 BKN043 OVC050 M04/M08 A3009 RMK AO2 SNE05 P0000 T10441083 $
  • 190054Z AUTO 29010KT 4SM -SN BKN025 BKN033 OVC040 M05/M08 A3009 RMK AO2 SNB34 SLP201 P0000 T10501083 $
  • 190024Z AUTO 29011KT 10SM OVC029 M04/M09 A3008 RMK AO2 T10441094 $

TAF KPLN
Valide du 19 à 02h jusqu'au 20 à 00h UTC


190135Z 1902/1924 29012G21KT 6SM -SHSN SCT025 OVC035
TEMPO 1902/1906 3SM -SHSN BKN025
FM190600 30012G21KT 6SM -SHSN OVC025
FM191600 30013G23KT 6SM -SHSN OVC025



MET'MAP, la Météo Aéronautique d'un coup d'oeil ! - Copyright ORBIFLY Décembre 2007 - Disclaimer

ORBIFLY MET'MAP TEAM :

Programmation & Développement : Alexandra Zaïnal
Sur une idée originale de : Baudouin d'Aumeries
Assistance à la programmation : Marc-Olivier Méhu
Soutien technique & logistique : Manuel Goepfert

Contact : metmap@orbifly.com




SOURCES & CREDITS :

   NOAA       Earth
Advisory